Time;durP1;ratioP1;P1;durP2;ratioP2;P2;SDS_P1;SDS_P2;PMS_P1;PMS_P2;Temp;Humidity;BMP_temperature;BMP_pressure;BME280_temperature;BME280_humidity;BME280_pressure;Samples;Min_cycle;Max_cycle;Signal;HPM_P1;HPM_P2
2022/01/14 00:00:06;;;;;;;23.30;10.95;;;4.40;97.30;;;;;;2080845;28;20034;-85
2022/01/14 00:01:06;;;;;;;29.60;11.43;;;4.40;97.30;;;;;;2083435;28;20427;-86
2022/01/14 00:02:08;;;;;;;32.22;12.10;;;4.40;97.30;;;;;;2087182;28;20128;-85
2022/01/14 00:03:09;;;;;;;22.48;11.30;;;4.40;97.30;;;;;;2080985;28;20037;-86
2022/01/14 00:04:10;;;;;;;18.95;10.82;;;4.40;97.30;;;;;;2085301;28;20124;-86
2022/01/14 00:05:10;;;;;;;30.00;12.05;;;4.40;97.30;;;;;;2087004;28;20067;-86
2022/01/14 00:06:11;;;;;;;37.72;13.38;;;4.40;97.30;;;;;;2077727;28;20116;-86
2022/01/14 00:07:11;;;;;;;22.13;11.15;;;4.40;97.30;;;;;;2076069;28;20112;-86
2022/01/14 00:08:12;;;;;;;24.13;12.07;;;4.40;97.30;;;;;;2088545;28;20569;-87
2022/01/14 00:09:15;;;;;;;22.90;10.98;;;4.40;97.30;;;;;;2065650;28;20042;-86
2022/01/14 00:10:15;;;;;;;25.13;11.75;;;4.40;97.30;;;;;;2064995;28;20038;-86
2022/01/14 00:11:18;;;;;;;22.73;10.63;;;4.40;97.30;;;;;;2079571;28;20072;-86
2022/01/14 00:12:24;;;;;;;21.70;10.95;;;4.40;97.30;;;;;;2080541;28;20504;-86
2022/01/14 00:14:57;;;;;;;21.20;11.02;;;4.40;97.30;;;;;;2076258;28;20064;-86
2022/01/14 00:15:58;;;;;;;22.88;10.63;;;4.30;97.30;;;;;;2078464;28;20052;-86
2022/01/14 00:16:58;;;;;;;21.65;10.55;;;4.30;97.30;;;;;;2079173;28;20538;-86
2022/01/14 00:17:59;;;;;;;21.27;10.75;;;4.30;97.30;;;;;;2088590;28;20037;-86
2022/01/14 00:19:00;;;;;;;19.92;11.18;;;4.30;97.30;;;;;;2080231;28;20068;-86
2022/01/14 00:20:01;;;;;;;26.33;11.55;;;4.30;97.30;;;;;;2070584;28;20033;-86
2022/01/14 00:21:03;;;;;;;22.33;11.32;;;4.30;97.30;;;;;;2071861;28;20508;-86
2022/01/14 00:22:11;;;;;;;28.85;11.57;;;4.30;97.30;;;;;;2068451;28;20037;-86
2022/01/14 00:23:12;;;;;;;21.42;10.57;;;4.30;97.30;;;;;;2074595;28;20510;-86
2022/01/14 00:24:24;;;;;;;22.92;11.07;;;4.30;97.30;;;;;;2098134;28;20066;-86
2022/01/14 00:31:57;;;;;;;20.55;10.88;;;4.30;97.30;;;;;;2086692;28;20080;-86
2022/01/14 00:33:10;;;;;;;21.85;11.02;;;4.30;97.30;;;;;;2087097;28;20467;-86
2022/01/14 00:34:12;;;;;;;22.35;11.05;;;4.30;97.30;;;;;;2084892;28;20506;-86
2022/01/14 00:35:13;;;;;;;21.27;11.00;;;4.30;97.30;;;;;;2085072;28;20120;-86
2022/01/14 00:36:14;;;;;;;28.17;10.65;;;4.30;97.30;;;;;;2091008;28;20399;-86
2022/01/14 00:37:16;;;;;;;19.25;10.35;;;4.30;97.30;;;;;;2088342;28;20072;-86
2022/01/14 00:38:17;;;;;;;19.08;9.55;;;4.30;97.30;;;;;;2082794;28;20040;-86
2022/01/14 00:39:18;;;;;;;18.13;9.88;;;4.30;97.60;;;;;;2098693;28;20525;-86
2022/01/14 00:40:19;;;;;;;20.90;10.65;;;4.30;97.30;;;;;;2081494;28;20396;-86
2022/01/14 00:41:19;;;;;;;18.95;9.90;;;4.40;97.30;;;;;;2078632;28;20441;-86
2022/01/14 00:42:20;;;;;;;21.25;10.35;;;4.30;97.30;;;;;;2079218;28;20124;-86
2022/01/14 00:43:21;;;;;;;19.35;9.85;;;4.40;97.40;;;;;;2076753;28;20037;-86
2022/01/14 00:44:22;;;;;;;21.30;10.65;;;4.40;97.40;;;;;;2090013;28;20037;-86
2022/01/14 00:45:23;;;;;;;18.63;10.52;;;4.30;97.30;;;;;;2075084;28;20432;-86
2022/01/14 00:46:23;;;;;;;18.50;10.35;;;4.40;97.40;;;;;;2073706;28;20046;-86
2022/01/14 00:47:24;;;;;;;21.05;9.98;;;4.40;97.30;;;;;;2083540;28;20036;-86
2022/01/14 00:48:24;;;;;;;18.17;10.25;;;4.40;97.30;;;;;;2074082;28;20124;-86
2022/01/14 00:49:25;;;;;;;19.45;10.27;;;4.40;97.30;;;;;;2074703;28;20037;-86
2022/01/14 00:50:26;;;;;;;19.08;10.27;;;4.40;97.30;;;;;;2069619;28;20132;-86
2022/01/14 00:51:27;;;;;;;20.08;10.77;;;4.40;97.30;;;;;;2074730;28;20038;-86
2022/01/14 00:52:27;;;;;;;20.13;10.43;;;4.40;97.30;;;;;;2081955;28;20512;-86
2022/01/14 00:53:28;;;;;;;20.58;10.75;;;4.40;97.30;;;;;;2078320;28;20086;-86
2022/01/14 00:54:28;;;;;;;20.80;10.80;;;4.40;97.30;;;;;;2075417;28;20451;-86
2022/01/14 00:55:41;;;;;;;20.85;10.73;;;4.40;97.60;;;;;;2086055;28;20106;-86
2022/01/14 00:59:17;;;;;;;20.73;11.18;;;4.40;97.30;;;;;;2083928;28;20132;-86
2022/01/14 01:00:24;;;;;;;19.55;10.50;;;4.40;97.30;;;;;;2086771;28;20060;-86
2022/01/14 01:01:24;;;;;;;19.92;10.10;;;4.40;97.30;;;;;;2090755;28;20136;-86
2022/01/14 01:02:25;;;;;;;18.33;9.93;;;4.40;97.30;;;;;;2069261;28;20041;-86
2022/01/14 01:03:27;;;;;;;18.77;10.32;;;4.40;97.30;;;;;;2066270;28;20552;-85
2022/01/14 01:04:36;;;;;;;22.45;11.55;;;4.40;97.30;;;;;;2078471;28;20113;-86
2022/01/14 01:05:37;;;;;;;19.15;10.65;;;4.40;97.60;;;;;;2091995;28;20549;-86
2022/01/14 01:06:38;;;;;;;20.92;10.93;;;4.40;97.30;;;;;;2081806;28;20144;-86
2022/01/14 01:07:44;;;;;;;20.05;10.85;;;4.40;97.30;;;;;;2063095;28;20042;-87
2022/01/14 01:08:47;;;;;;;22.40;11.65;;;4.40;97.30;;;;;;2066863;28;20060;-86
2022/01/14 01:09:50;;;;;;;19.35;10.77;;;4.40;97.30;;;;;;2070683;28;20194;-86
2022/01/14 01:10:51;;;;;;;20.63;10.43;;;4.40;97.30;;;;;;2082764;28;20037;-86
2022/01/14 01:12:10;;;;;;;24.02;11.45;;;4.50;97.30;;;;;;2075858;28;20057;-86
2022/01/14 01:13:19;;;;;;;23.08;12.00;;;4.50;97.30;;;;;;2086094;28;20044;-87
2022/01/14 01:14:27;;;;;;;22.95;11.60;;;4.40;97.30;;;;;;2073556;28;20049;-86
2022/01/14 01:15:28;;;;;;;19.08;9.90;;;4.40;97.30;;;;;;2075090;28;20038;-86
2022/01/14 01:16:28;;;;;;;20.98;11.73;;;4.40;97.30;;;;;;2082036;28;20061;-86
2022/01/14 01:17:29;;;;;;;23.48;12.25;;;4.40;97.30;;;;;;2074266;28;20050;-85
2022/01/14 01:18:30;;;;;;;23.98;12.38;;;4.40;97.30;;;;;;2081796;28;20041;-86
2022/01/14 01:19:30;;;;;;;23.92;11.50;;;4.40;97.30;;;;;;2088957;28;20128;-86
2022/01/14 01:20:31;;;;;;;21.98;11.35;;;4.40;97.30;;;;;;2092297;28;20071;-86
2022/01/14 01:21:32;;;;;;;19.88;10.80;;;4.40;97.30;;;;;;2081516;28;20033;-85
2022/01/14 01:22:33;;;;;;;21.67;11.63;;;4.40;97.30;;;;;;2066176;28;20111;-86
2022/01/14 01:23:33;;;;;;;22.85;11.80;;;4.40;97.30;;;;;;2075252;28;20129;-86
2022/01/14 01:24:34;;;;;;;23.92;11.75;;;4.40;97.30;;;;;;2083481;28;20038;-86
2022/01/14 01:25:44;;;;;;;25.70;12.43;;;4.40;97.30;;;;;;2090478;28;20032;-86
2022/01/14 01:26:44;;;;;;;25.33;12.55;;;4.40;97.30;;;;;;2082889;28;20132;-86
2022/01/14 01:27:47;;;;;;;22.55;11.60;;;4.40;97.30;;;;;;2079985;28;20577;-86
2022/01/14 01:30:11;;;;;;;22.90;11.48;;;4.40;97.30;;;;;;2067467;28;20035;-86
2022/01/14 01:31:35;;;;;;;20.55;10.60;;;4.40;97.30;;;;;;2077151;28;20439;-86
2022/01/14 01:32:32;;;;;;;23.98;11.85;;;4.40;97.30;;;;;;2078711;28;20076;-86
2022/01/14 01:33:33;;;;;;;24.10;11.98;;;4.40;97.30;;;;;;2079069;28;20045;-86
2022/01/14 01:34:35;;;;;;;23.60;11.95;;;4.40;97.30;;;;;;2076985;28;20184;-86
2022/01/14 01:35:35;;;;;;;23.15;12.40;;;4.40;97.30;;;;;;2077135;28;20118;-86
2022/01/14 01:36:37;;;;;;;24.73;11.68;;;4.40;97.30;;;;;;2073909;28;20049;-87
2022/01/14 01:37:38;;;;;;;22.85;11.85;;;4.40;97.30;;;;;;2066041;28;20126;-86
2022/01/14 01:38:38;;;;;;;22.27;10.95;;;4.40;97.30;;;;;;2065758;28;20129;-86
2022/01/14 01:39:39;;;;;;;23.63;11.95;;;4.40;97.30;;;;;;2082186;28;20129;-86
2022/01/14 01:40:40;;;;;;;27.95;12.60;;;4.40;97.30;;;;;;2089899;28;20040;-86
2022/01/14 01:41:44;;;;;;;25.85;12.27;;;4.40;97.30;;;;;;2083022;28;20388;-86
2022/01/14 01:42:45;;;;;;;23.17;12.00;;;4.40;97.30;;;;;;2076511;28;20045;-86
2022/01/14 01:43:51;;;;;;;22.80;12.10;;;4.40;97.30;;;;;;2080552;28;20037;-86
2022/01/14 01:44:52;;;;;;;24.13;12.15;;;4.40;97.30;;;;;;2088760;28;20047;-86
2022/01/14 01:45:54;;;;;;;24.75;11.45;;;4.40;97.30;;;;;;2072950;28;20056;-86
2022/01/14 01:46:56;;;;;;;23.08;12.30;;;4.40;97.30;;;;;;2073755;28;20121;-86
2022/01/14 01:47:57;;;;;;;32.75;13.07;;;4.30;97.30;;;;;;2078472;28;20022;-86
2022/01/14 01:48:57;;;;;;;26.40;12.80;;;4.40;97.30;;;;;;2079275;28;20168;-86
2022/01/14 01:50:11;;;;;;;25.15;12.35;;;4.30;97.30;;;;;;2082109;28;20046;-86
2022/01/14 01:51:12;;;;;;;24.73;12.93;;;4.30;97.30;;;;;;2074023;28;20054;-86
2022/01/14 01:52:13;;;;;;;25.80;12.95;;;4.30;97.30;;;;;;2066373;28;20125;-86
2022/01/14 01:53:14;;;;;;;27.27;13.07;;;4.30;97.30;;;;;;2073104;28;20030;-85
2022/01/14 01:54:16;;;;;;;24.17;12.95;;;4.30;97.30;;;;;;2096112;28;20094;-86
2022/01/14 01:55:17;;;;;;;25.38;12.35;;;4.30;97.30;;;;;;2086425;28;20025;-86
2022/01/14 01:56:18;;;;;;;23.77;12.13;;;4.30;97.30;;;;;;2074683;28;20030;-86
2022/01/14 01:57:19;;;;;;;24.95;12.50;;;4.30;97.30;;;;;;2083627;28;20521;-86
2022/01/14 01:58:19;;;;;;;25.13;12.25;;;4.30;97.30;;;;;;2064429;28;20054;-86
2022/01/14 01:59:22;;;;;;;23.40;12.13;;;4.30;97.30;;;;;;2079710;28;20077;-86
2022/01/14 02:00:25;;;;;;;29.55;13.77;;;4.40;97.40;;;;;;2082284;28;21891;-86
2022/01/14 02:01:26;;;;;;;24.63;12.38;;;4.40;97.30;;;;;;2078875;28;20042;-86
2022/01/14 02:02:28;;;;;;;23.35;12.52;;;4.40;97.30;;;;;;2092717;28;20028;-87
2022/01/14 02:03:28;;;;;;;26.15;12.25;;;4.40;97.30;;;;;;2088635;28;22440;-87
2022/01/14 02:04:29;;;;;;;26.77;13.05;;;4.40;97.30;;;;;;2091247;28;20024;-86
2022/01/14 02:05:30;;;;;;;23.65;12.38;;;4.40;97.30;;;;;;2090844;28;20064;-86
2022/01/14 02:06:32;;;;;;;22.55;11.90;;;4.40;97.30;;;;;;2081377;28;20171;-86
2022/01/14 02:07:33;;;;;;;26.88;12.05;;;4.40;97.30;;;;;;2080908;28;20037;-86
2022/01/14 02:08:33;;;;;;;24.45;12.40;;;4.40;97.30;;;;;;2080832;28;20033;-86
2022/01/14 02:09:34;;;;;;;22.67;11.55;;;4.40;97.30;;;;;;2088685;28;20530;-86
2022/01/14 02:10:37;;;;;;;20.77;11.50;;;4.40;97.30;;;;;;2072918;28;20037;-86
2022/01/14 02:11:38;;;;;;;23.20;11.80;;;4.40;97.30;;;;;;2073855;28;20053;-86
2022/01/14 02:12:49;;;;;;;24.67;11.90;;;4.40;97.60;;;;;;2081958;28;20039;-86
2022/01/14 02:13:52;;;;;;;26.13;13.40;;;4.40;97.30;;;;;;2079923;28;20665;-86
2022/01/14 02:15:07;;;;;;;21.35;11.15;;;4.40;97.30;;;;;;2082191;28;20472;-86
2022/01/14 02:22:08;;;;;;;24.20;11.40;;;4.30;97.30;;;;;;2084038;28;20034;-86
2022/01/14 02:22:46;;;;;;;23.23;11.07;;;4.30;97.30;;;;;;2076820;28;20092;-86
2022/01/14 02:23:54;;;;;;;23.67;11.45;;;4.30;97.30;;;;;;2081964;28;20104;-87
2022/01/14 02:24:59;;;;;;;22.80;11.68;;;4.30;97.30;;;;;;2077790;28;20064;-86
2022/01/14 02:25:59;;;;;;;24.45;12.20;;;4.30;97.20;;;;;;2071110;28;20034;-86
2022/01/14 02:27:01;;;;;;;25.25;11.90;;;4.30;97.30;;;;;;2073575;28;20050;-86
2022/01/14 02:28:06;;;;;;;23.23;11.98;;;4.30;97.30;;;;;;2088215;28;20037;-86
2022/01/14 02:29:07;;;;;;;25.90;12.98;;;4.30;97.30;;;;;;2086073;28;20037;-86
2022/01/14 02:30:09;;;;;;;28.52;11.82;;;4.30;97.30;;;;;;2081815;28;20045;-86
2022/01/14 02:31:10;;;;;;;23.08;11.98;;;4.30;97.30;;;;;;2089644;28;20053;-86
2022/01/14 02:32:10;;;;;;;24.35;12.60;;;4.30;97.30;;;;;;2085544;28;20116;-86
2022/01/14 02:33:13;;;;;;;24.02;12.57;;;4.30;97.30;;;;;;2089219;28;20479;-86
2022/01/14 02:34:15;;;;;;;27.20;13.55;;;4.30;97.30;;;;;;2079446;28;20064;-86
2022/01/14 02:35:16;;;;;;;24.23;12.60;;;4.30;97.30;;;;;;2070126;28;20431;-86
2022/01/14 02:36:17;;;;;;;29.08;13.18;;;4.20;97.30;;;;;;2087300;28;20044;-86
2022/01/14 02:37:20;;;;;;;28.48;14.50;;;4.20;97.30;;;;;;2089701;28;20556;-86
2022/01/14 02:38:20;;;;;;;26.40;13.40;;;4.20;97.30;;;;;;2068143;28;20482;-85
2022/01/14 02:39:21;;;;;;;24.23;12.15;;;4.20;97.30;;;;;;2074425;28;20029;-86
2022/01/14 02:40:22;;;;;;;26.67;12.98;;;4.20;97.30;;;;;;2080070;28;20095;-86
2022/01/14 02:41:23;;;;;;;25.42;13.13;;;4.20;97.60;;;;;;2073050;28;20480;-86
2022/01/14 02:42:23;;;;;;;26.00;13.32;;;4.20;97.30;;;;;;2089980;28;20136;-86
2022/01/14 02:43:26;;;;;;;25.92;12.65;;;4.20;97.30;;;;;;2086191;28;20614;-86
2022/01/14 02:44:29;;;;;;;23.75;12.80;;;4.30;97.30;;;;;;2081576;28;20034;-86
2022/01/14 02:45:33;;;;;;;24.13;12.38;;;4.20;97.30;;;;;;2081216;28;20511;-86
2022/01/14 02:46:38;;;;;;;20.83;11.75;;;4.20;97.30;;;;;;2073016;28;20046;-86
2022/01/14 02:47:39;;;;;;;23.23;12.07;;;4.20;97.30;;;;;;2078904;28;20121;-86
2022/01/14 02:48:39;;;;;;;21.60;11.68;;;4.20;97.30;;;;;;2073911;28;20100;-86
2022/01/14 02:49:40;;;;;;;22.73;11.50;;;4.30;97.30;;;;;;2078899;28;20036;-86
2022/01/14 02:51:23;;;;;;;24.15;11.43;;;4.20;97.30;;;;;;2078791;28;20519;-86
2022/01/14 02:52:07;;;;;;;24.60;11.73;;;4.20;97.30;;;;;;2057184;28;20125;-86
2022/01/14 02:53:26;;;;;;;22.85;11.32;;;4.20;97.30;;;;;;2065542;28;20045;-86
2022/01/14 02:54:33;;;;;;;27.88;12.43;;;4.20;97.30;;;;;;2065075;28;20023;-86
2022/01/14 02:55:35;;;;;;;23.05;11.98;;;4.20;97.30;;;;;;2072838;28;20034;-87
2022/01/14 02:56:38;;;;;;;24.25;12.20;;;4.20;97.30;;;;;;2064448;28;20043;-86
2022/01/14 02:57:40;;;;;;;21.58;12.07;;;4.20;97.30;;;;;;2064106;28;20034;-86
2022/01/14 02:58:42;;;;;;;22.02;11.35;;;4.20;97.30;;;;;;2073671;28;20046;-86
2022/01/14 02:59:43;;;;;;;22.13;11.75;;;4.20;97.30;;;;;;2074032;28;20503;-86
2022/01/14 03:00:44;;;;;;;19.58;10.80;;;4.20;97.30;;;;;;2076303;28;20042;-86
2022/01/14 03:01:46;;;;;;;20.02;11.27;;;4.20;97.30;;;;;;2074208;28;20026;-86
2022/01/14 03:02:49;;;;;;;21.77;11.38;;;4.20;97.30;;;;;;2072707;28;20489;-86
2022/01/14 03:03:55;;;;;;;18.55;10.50;;;4.20;97.40;;;;;;2072391;28;20038;-86
2022/01/14 03:04:58;;;;;;;21.02;11.00;;;4.20;97.40;;;;;;2071867;28;20041;-86
2022/01/14 03:06:01;;;;;;;22.60;10.60;;;4.20;97.40;;;;;;2071752;28;20120;-86
2022/01/14 03:07:01;;;;;;;18.23;10.23;;;4.20;97.40;;;;;;2070038;28;20400;-86
2022/01/14 03:08:02;;;;;;;20.83;10.55;;;4.20;97.40;;;;;;2071041;28;20074;-86
2022/01/14 03:09:04;;;;;;;16.88;10.35;;;4.20;97.40;;;;;;2073112;28;20088;-86
2022/01/14 03:10:06;;;;;;;30.13;12.38;;;4.20;97.40;;;;;;2080060;28;20164;-86
2022/01/14 03:11:09;;;;;;;21.58;11.07;;;4.20;97.40;;;;;;2073961;28;20396;-86
2022/01/14 03:12:11;;;;;;;21.98;11.68;;;4.20;97.30;;;;;;2065696;28;20437;-86
2022/01/14 03:13:11;;;;;;;22.45;11.65;;;4.20;97.30;;;;;;2077539;28;20542;-87
2022/01/14 03:14:14;;;;;;;20.98;11.48;;;4.20;97.30;;;;;;2058967;28;20035;-86
2022/01/14 03:15:15;;;;;;;21.20;11.40;;;4.20;97.30;;;;;;2064734;28;20066;-86
2022/01/14 03:16:20;;;;;;;23.13;11.38;;;4.20;97.30;;;;;;2080700;28;20068;-86
2022/01/14 03:17:20;;;;;;;22.90;11.48;;;4.20;97.30;;;;;;2074388;28;20434;-86
2022/01/14 03:18:31;;;;;;;20.35;11.15;;;4.20;97.30;;;;;;2065493;28;20122;-86
2022/01/14 03:19:31;;;;;;;20.83;11.30;;;4.20;97.30;;;;;;2079258;28;20042;-86
2022/01/14 03:20:54;;;;;;;20.92;11.27;;;4.20;97.30;;;;;;2088282;28;20037;-86
2022/01/14 03:22:17;;;;;;;18.10;10.57;;;4.20;97.30;;;;;;2076323;28;20053;-86
2022/01/14 03:23:19;;;;;;;18.98;9.98;;;4.20;97.30;;;;;;2068678;28;20056;-86
2022/01/14 03:25:59;;;;;;;20.13;10.50;;;4.20;97.30;;;;;;2076451;28;20042;-86
2022/01/14 03:26:56;;;;;;;;;;;4.20;97.30;;;;;;2073136;28;20053;-86
2022/01/14 03:27:57;;;;;;;21.27;10.27;;;4.20;97.30;;;;;;2073073;28;19996;-86
2022/01/14 03:28:57;;;;;;;17.88;9.85;;;4.20;97.20;;;;;;2073006;28;20045;-86
2022/01/14 03:29:58;;;;;;;20.48;9.93;;;4.20;97.20;;;;;;2074337;28;20042;-86
2022/01/14 03:30:58;;;;;;;22.92;10.45;;;4.20;97.20;;;;;;2063161;28;20042;-86
2022/01/14 03:32:00;;;;;;;20.00;10.55;;;4.20;97.20;;;;;;2057233;28;20453;-87
2022/01/14 03:33:00;;;;;;;22.40;11.07;;;4.20;97.20;;;;;;2075529;28;20044;-86
2022/01/14 03:34:01;;;;;;;18.95;10.73;;;4.20;97.30;;;;;;2072609;28;20038;-86
2022/01/14 03:35:02;;;;;;;25.63;11.75;;;4.20;97.30;;;;;;2068238;28;20037;-86
2022/01/14 03:36:04;;;;;;;21.58;10.95;;;4.20;97.30;;;;;;2081041;28;20444;-86
2022/01/14 03:37:05;;;;;;;22.77;11.52;;;4.20;97.20;;;;;;2080924;28;20053;-86
2022/01/14 03:38:06;;;;;;;22.30;11.65;;;4.20;97.30;;;;;;2076769;28;20040;-86
2022/01/14 03:39:07;;;;;;;19.45;10.98;;;4.20;97.30;;;;;;2076381;28;20133;-86
2022/01/14 03:40:08;;;;;;;18.92;9.98;;;4.20;97.30;;;;;;2071960;28;20460;-86
2022/01/14 03:41:09;;;;;;;19.17;10.70;;;4.20;97.30;;;;;;2070934;28;20554;-86
2022/01/14 03:42:09;;;;;;;20.67;10.45;;;4.20;97.30;;;;;;2070097;28;20073;-86
2022/01/14 03:43:11;;;;;;;19.77;10.57;;;4.20;97.30;;;;;;2064674;28;20133;-87
2022/01/14 03:44:11;;;;;;;18.48;10.25;;;4.20;97.30;;;;;;2067369;28;20657;-87
2022/01/14 03:45:12;;;;;;;22.45;11.60;;;4.20;97.30;;;;;;2056562;28;20097;-86
2022/01/14 03:46:13;;;;;;;20.13;10.93;;;4.20;97.30;;;;;;2073693;28;20045;-86
2022/01/14 03:47:13;;;;;;;21.45;10.95;;;4.20;97.30;;;;;;2077486;28;20061;-86
2022/01/14 03:48:14;;;;;;;17.42;10.60;;;4.20;97.30;;;;;;2064620;28;20034;-86
2022/01/14 03:49:15;;;;;;;19.25;10.30;;;4.20;97.30;;;;;;2075483;28;20060;-86
2022/01/14 03:50:15;;;;;;;23.75;11.20;;;4.20;97.30;;;;;;2084242;28;20029;-86
2022/01/14 03:51:16;;;;;;;21.77;10.75;;;4.30;97.30;;;;;;2080069;28;20049;-86
2022/01/14 03:52:17;;;;;;;19.67;10.45;;;4.20;97.30;;;;;;2063115;28;20030;-86
2022/01/14 03:53:18;;;;;;;21.17;10.55;;;4.20;97.30;;;;;;2068521;28;20038;-86
2022/01/14 03:54:19;;;;;;;19.38;10.95;;;4.30;97.30;;;;;;2071950;28;20132;-86
2022/01/14 03:55:20;;;;;;;19.77;11.15;;;4.30;97.30;;;;;;2080981;28;20132;-86
2022/01/14 03:56:23;;;;;;;21.40;11.15;;;4.30;97.30;;;;;;2095959;28;20040;-87
2022/01/14 03:57:23;;;;;;;22.73;11.40;;;4.30;97.30;;;;;;2078928;28;20065;-87
2022/01/14 03:58:24;;;;;;;21.65;11.52;;;4.20;97.30;;;;;;2072157;28;20034;-86
2022/01/14 03:59:24;;;;;;;23.45;11.38;;;4.20;97.30;;;;;;2081111;28;20036;-86
2022/01/14 04:00:25;;;;;;;20.52;11.27;;;4.30;97.30;;;;;;2072520;28;20034;-86
2022/01/14 04:01:26;;;;;;;22.48;11.45;;;4.30;97.30;;;;;;2058401;28;20133;-87
2022/01/14 04:02:26;;;;;;;22.08;11.48;;;4.20;97.30;;;;;;2070770;28;20689;-86
2022/01/14 04:03:27;;;;;;;22.77;11.13;;;4.20;97.30;;;;;;2089009;28;20033;-86
2022/01/14 04:04:28;;;;;;;21.52;11.73;;;4.20;97.30;;;;;;2081612;28;20096;-86
2022/01/14 04:05:28;;;;;;;21.48;11.23;;;4.20;97.30;;;;;;2086633;28;20422;-86
2022/01/14 04:06:30;;;;;;;21.63;11.27;;;4.20;97.30;;;;;;2084312;28;20030;-86
2022/01/14 04:07:31;;;;;;;20.42;11.23;;;4.20;97.30;;;;;;2078017;28;20055;-86
2022/01/14 04:08:32;;;;;;;23.13;11.38;;;4.20;97.30;;;;;;2074143;28;20528;-86
2022/01/14 04:09:36;;;;;;;20.55;11.30;;;4.30;97.30;;;;;;2093760;28;20083;-87
2022/01/14 04:10:37;;;;;;;23.00;11.35;;;4.20;97.30;;;;;;2086811;28;20033;-86
2022/01/14 04:11:39;;;;;;;25.17;11.10;;;4.20;97.50;;;;;;2076131;28;20154;-86
2022/01/14 04:13:55;;;;;;;21.90;11.68;;;4.20;97.30;;;;;;2082187;28;20096;-86
2022/01/14 04:15:57;;;;;;;22.52;11.75;;;4.30;97.30;;;;;;2088643;28;20037;-86
2022/01/14 04:16:58;;;;;;;25.33;12.20;;;4.30;97.30;;;;;;2070577;28;20125;-86
2022/01/14 04:18:00;;;;;;;25.25;12.15;;;4.30;97.30;;;;;;2078981;28;20037;-87
2022/01/14 04:19:00;;;;;;;21.25;11.55;;;4.20;97.30;;;;;;2096846;28;20105;-87
2022/01/14 04:20:01;;;;;;;23.90;11.55;;;4.30;97.30;;;;;;2070070;28;20080;-87
2022/01/14 04:21:02;;;;;;;23.35;12.15;;;4.20;97.30;;;;;;2067932;28;20046;-86
2022/01/14 04:22:03;;;;;;;26.23;11.88;;;4.20;97.30;;;;;;2064512;28;20038;-86
2022/01/14 04:23:05;;;;;;;22.13;11.60;;;4.30;97.30;;;;;;2070331;28;20042;-86
2022/01/14 04:24:06;;;;;;;20.60;11.38;;;4.20;97.20;;;;;;2080446;28;20121;-86
2022/01/14 04:25:06;;;;;;;21.73;11.77;;;4.20;97.20;;;;;;2073050;28;20133;-87
2022/01/14 04:26:07;;;;;;;21.45;11.70;;;4.20;97.30;;;;;;2073722;28;21937;-86
2022/01/14 04:27:08;;;;;;;22.67;11.75;;;4.20;97.30;;;;;;2078011;28;20030;-86
2022/01/14 04:28:10;;;;;;;25.80;11.50;;;4.20;97.50;;;;;;2086193;28;20582;-86
2022/01/14 04:29:11;;;;;;;22.33;11.73;;;4.20;97.30;;;;;;2071433;28;20437;-86
2022/01/14 04:30:12;;;;;;;21.70;12.18;;;4.20;97.30;;;;;;2055749;28;20039;-86
2022/01/14 04:31:12;;;;;;;22.00;11.68;;;4.20;97.30;;;;;;2076875;28;20033;-86
2022/01/14 04:32:13;;;;;;;25.45;11.77;;;4.20;97.30;;;;;;2082474;28;20442;-86
2022/01/14 04:33:14;;;;;;;22.30;12.45;;;4.20;97.30;;;;;;2078348;28;20065;-87
2022/01/14 04:34:16;;;;;;;20.95;11.50;;;4.20;97.30;;;;;;2080710;28;20040;-86
2022/01/14 04:35:17;;;;;;;28.52;13.40;;;4.20;97.30;;;;;;2077097;28;20047;-86
2022/01/14 04:36:18;;;;;;;21.02;11.27;;;4.20;97.30;;;;;;2089319;28;20044;-86
2022/01/14 04:37:18;;;;;;;26.27;12.40;;;4.20;97.30;;;;;;2078312;28;20511;-86
2022/01/14 04:38:19;;;;;;;24.67;11.95;;;4.20;97.30;;;;;;2086450;28;20033;-86
2022/01/14 04:39:20;;;;;;;23.45;12.52;;;4.20;97.30;;;;;;2091013;28;20032;-86
2022/01/14 04:40:21;;;;;;;22.60;11.95;;;4.20;97.30;;;;;;2072431;28;20096;-86
2022/01/14 04:41:21;;;;;;;23.70;12.13;;;4.20;97.30;;;;;;2080731;28;20048;-87
2022/01/14 04:42:23;;;;;;;23.52;12.77;;;4.20;97.30;;;;;;2070630;28;20623;-86
2022/01/14 04:43:24;;;;;;;20.38;11.70;;;4.20;97.30;;;;;;2063986;28;20049;-86
2022/01/14 04:44:25;;;;;;;21.30;11.80;;;4.20;97.30;;;;;;2080139;28;20034;-87
2022/01/14 04:45:42;;;;;;;23.50;13.05;;;4.20;97.30;;;;;;2087147;28;20055;-86
2022/01/14 04:47:44;;;;;;;25.80;11.98;;;4.20;97.30;;;;;;2077652;28;20045;-86
2022/01/14 04:48:45;;;;;;;24.33;12.02;;;4.20;97.30;;;;;;2081210;28;20049;-86
2022/01/14 04:49:45;;;;;;;21.70;12.13;;;4.20;97.20;;;;;;2083653;28;20504;-87
2022/01/14 04:50:46;;;;;;;24.70;12.50;;;4.20;97.20;;;;;;2071382;28;20508;-86
2022/01/14 04:51:47;;;;;;;24.55;12.30;;;4.20;97.30;;;;;;2064053;28;20042;-86
2022/01/14 04:52:48;;;;;;;24.85;12.13;;;4.20;97.30;;;;;;2074277;28;20452;-86
2022/01/14 04:53:49;;;;;;;32.10;13.60;;;4.20;97.30;;;;;;2073999;28;20030;-86
2022/01/14 04:54:50;;;;;;;23.83;12.68;;;4.20;97.30;;;;;;2079644;28;20416;-86
2022/01/14 04:55:51;;;;;;;26.08;11.82;;;4.20;97.20;;;;;;2070900;28;20044;-85
2022/01/14 04:56:52;;;;;;;25.98;12.93;;;4.20;97.20;;;;;;2080614;28;20038;-86
2022/01/14 04:57:54;;;;;;;22.23;12.38;;;4.20;97.20;;;;;;2088793;28;20430;-86
2022/01/14 04:58:56;;;;;;;26.80;12.50;;;4.20;97.20;;;;;;2080698;28;20512;-86
2022/01/14 04:59:57;;;;;;;22.98;12.43;;;4.20;97.20;;;;;;2074229;28;20065;-86
2022/01/14 05:00:58;;;;;;;25.77;11.93;;;4.20;97.50;;;;;;2080760;28;20040;-86
2022/01/14 05:01:58;;;;;;;25.00;11.85;;;4.20;97.30;;;;;;2088099;28;20499;-87
2022/01/14 05:02:59;;;;;;;22.65;12.20;;;4.20;97.20;;;;;;2080528;28;20033;-85
2022/01/14 05:04:00;;;;;;;25.25;11.90;;;4.20;97.30;;;;;;2084969;28;20435;-86
2022/01/14 05:05:02;;;;;;;22.83;12.32;;;4.20;97.20;;;;;;2089580;28;20036;-86
2022/01/14 05:06:05;;;;;;;25.70;11.98;;;4.20;97.20;;;;;;2079847;28;20037;-86
2022/01/14 05:07:09;;;;;;;21.25;11.85;;;4.20;97.30;;;;;;2072567;28;20053;-86
2022/01/14 05:08:18;;;;;;;20.95;11.05;;;4.20;97.30;;;;;;2078464;28;20041;-86
2022/01/14 05:09:26;;;;;;;22.40;11.48;;;4.20;97.30;;;;;;2075411;28;20134;-86
2022/01/14 05:11:39;;;;;;;21.92;11.05;;;4.20;97.30;;;;;;2089513;28;20033;-86
2022/01/14 05:12:39;;;;;;;21.67;11.82;;;4.20;97.60;;;;;;2085530;28;20037;-86
2022/01/14 05:13:40;;;;;;;20.75;11.15;;;4.20;97.30;;;;;;2089124;28;20526;-86
2022/01/14 05:14:43;;;;;;;21.42;11.02;;;4.20;97.30;;;;;;2081084;28;20085;-86
2022/01/14 05:15:44;;;;;;;23.42;11.40;;;4.20;97.30;;;;;;2079248;28;20587;-86
2022/01/14 05:16:45;;;;;;;20.25;11.07;;;4.20;97.30;;;;;;2082186;28;20052;-86
2022/01/14 05:17:48;;;;;;;19.63;11.27;;;4.20;97.30;;;;;;2076149;28;20052;-86
2022/01/14 05:18:49;;;;;;;21.92;11.70;;;4.20;97.30;;;;;;2071392;28;20034;-86
2022/01/14 05:19:50;;;;;;;19.90;11.32;;;4.20;97.30;;;;;;2072666;28;20100;-86
2022/01/14 05:20:54;;;;;;;20.00;11.45;;;4.20;97.30;;;;;;2074292;28;20145;-87
2022/01/14 05:21:55;;;;;;;21.08;11.18;;;4.20;97.30;;;;;;2088809;28;20088;-86
2022/01/14 05:22:56;;;;;;;21.30;11.00;;;4.20;97.30;;;;;;2106371;28;20052;-86
2022/01/14 05:23:56;;;;;;;21.13;11.57;;;4.20;97.30;;;;;;2084328;28;20022;-86
2022/01/14 05:24:57;;;;;;;24.48;11.88;;;4.20;97.30;;;;;;2075626;28;20061;-86
2022/01/14 05:25:58;;;;;;;19.73;10.73;;;4.20;97.30;;;;;;2075777;28;20065;-86
2022/01/14 05:26:58;;;;;;;18.80;10.32;;;4.20;97.30;;;;;;2084987;28;20053;-87
2022/01/14 05:27:59;;;;;;;22.95;11.20;;;4.30;97.30;;;;;;2074007;28;20072;-86
2022/01/14 05:29:00;;;;;;;21.30;11.75;;;4.30;97.30;;;;;;2072271;28;20132;-86
2022/01/14 05:30:01;;;;;;;22.15;11.15;;;4.30;97.30;;;;;;2082159;28;20053;-86
2022/01/14 05:31:01;;;;;;;19.30;10.93;;;4.20;97.20;;;;;;2083357;28;20037;-86
2022/01/14 05:32:04;;;;;;;22.00;11.00;;;4.20;97.20;;;;;;2081709;28;20456;-86
2022/01/14 05:33:04;;;;;;;20.95;10.75;;;4.20;97.20;;;;;;2072467;28;20101;-85
2022/01/14 05:34:05;;;;;;;21.73;10.82;;;4.30;97.30;;;;;;2076970;28;20146;-86
2022/01/14 05:35:06;;;;;;;18.88;10.68;;;4.30;97.30;;;;;;2065371;28;20073;-86
2022/01/14 05:36:06;;;;;;;18.80;10.48;;;4.30;97.30;;;;;;2074155;28;20046;-87
2022/01/14 05:37:08;;;;;;;18.42;10.13;;;4.30;97.50;;;;;;2089875;28;20051;-86
2022/01/14 05:38:09;;;;;;;20.08;10.88;;;4.30;97.30;;;;;;2084338;28;20036;-86
2022/01/14 05:39:10;;;;;;;19.70;10.77;;;4.30;97.30;;;;;;2073866;28;20033;-86
2022/01/14 05:40:12;;;;;;;19.67;10.55;;;4.30;97.30;;;;;;2075722;28;20073;-86
2022/01/14 05:41:18;;;;;;;20.83;10.48;;;4.30;97.30;;;;;;2081245;28;20395;-86
2022/01/14 05:42:19;;;;;;;18.00;9.98;;;4.30;97.30;;;;;;2090681;28;20546;-86
2022/01/14 05:43:19;;;;;;;21.50;10.65;;;4.30;97.30;;;;;;2084556;28;20038;-86